world map with VAF marked

VAF - Airport

This information may not be accurate or current and is not valid for navigation or flight planning. No warranty of fitness for any purpose is made or implied.

flag of Rhône-Alpesflag of France

Donate via PayPal

Additional information is available on the NEW Great Circle Mapper

Location
City:  Valence, Rhône-Alpes, France
Name:Chabeuil
ICAO / IATA:LFLU / VAF

Details
Type:Airport (Aerodrome, Airfield)
Use:Public/Civil
Latitude:44°54'56"N (44.915558)
Longitude:4°58'07"E (4.968744)
Elevation:525 ft (160 m)
Runways:3
Longest:6890 × 148 ft (2100 × 45 m)

Time
Timezone:UTC+1 (DST+4)
Local Time:

Weather
METAR:LFLU  041400Z AUTO 02014KT 9999 FEW034 06/M03 Q1026

Related Locations
Nearby:
Farthest:CHT: 12330 mi / 19844 km
Waitangi [Tuuta], CIT, NZ

Find:

   beyond  
but within

Other Information
Maps:
Sources:

  


 


Great Circle Mapper   Great Circle Mapper
Great Circle Mapper FAQ   Great Circle Mapper FAQ
  Karl's Home Page
KLS²   KLS² Home
   GC on Facebook
Airlines of the World   Airlines of the World
Donate via PayPal


Copyright © 2004-2019, Karl L. Swartz. All rights reserved.
All trademarks mentioned herein belong to their respective owners.

Please see credits for attribution and copyright information.

Karl Swartz <karl@kls2.com>
  Powered by FreeBSD
Valid HTML 4.01!
Labeled with ICRA
hCard Microformat
Geo Microformat